sensor_id;sensor_type;location;lat;lon;timestamp;P1;durP1;ratioP1;P2;durP2;ratioP2
24425;SDS011;12611;44.446;26.000;2022-10-31T00:01:26;23.53;;;12.87;;
24425;SDS011;12611;44.446;26.000;2022-10-31T00:03:55;22.07;;;11.17;;
24425;SDS011;12611;44.446;26.000;2022-10-31T00:06:24;25.27;;;11.63;;
24425;SDS011;12611;44.446;26.000;2022-10-31T00:08:53;22.57;;;11.93;;
24425;SDS011;12611;44.446;26.000;2022-10-31T00:11:22;25.83;;;12.10;;
24425;SDS011;12611;44.446;26.000;2022-10-31T00:13:51;23.80;;;12.20;;
24425;SDS011;12611;44.446;26.000;2022-10-31T00:16:21;25.43;;;11.00;;
24425;SDS011;12611;44.446;26.000;2022-10-31T00:18:52;25.50;;;11.73;;
24425;SDS011;12611;44.446;26.000;2022-10-31T00:21:21;21.90;;;11.17;;
24425;SDS011;12611;44.446;26.000;2022-10-31T00:23:51;23.97;;;11.83;;
24425;SDS011;12611;44.446;26.000;2022-10-31T00:26:19;29.97;;;11.33;;
24425;SDS011;12611;44.446;26.000;2022-10-31T00:28:48;23.30;;;11.17;;
24425;SDS011;12611;44.446;26.000;2022-10-31T00:31:17;20.53;;;10.60;;
24425;SDS011;12611;44.446;26.000;2022-10-31T00:33:45;24.57;;;11.10;;
24425;SDS011;12611;44.446;26.000;2022-10-31T00:36:16;28.27;;;12.07;;
24425;SDS011;12611;44.446;26.000;2022-10-31T00:38:46;23.10;;;10.93;;
24425;SDS011;12611;44.446;26.000;2022-10-31T00:41:16;21.13;;;10.33;;
24425;SDS011;12611;44.446;26.000;2022-10-31T00:43:44;27.27;;;10.33;;
24425;SDS011;12611;44.446;26.000;2022-10-31T00:46:13;19.90;;;9.73;;
24425;SDS011;12611;44.446;26.000;2022-10-31T00:48:41;17.90;;;9.87;;
24425;SDS011;12611;44.446;26.000;2022-10-31T00:51:10;19.77;;;9.10;;
24425;SDS011;12611;44.446;26.000;2022-10-31T00:53:40;20.80;;;10.17;;
24425;SDS011;12611;44.446;26.000;2022-10-31T00:56:08;16.50;;;9.37;;
24425;SDS011;12611;44.446;26.000;2022-10-31T00:58:36;19.63;;;9.57;;
24425;SDS011;12611;44.446;26.000;2022-10-31T01:01:04;18.10;;;9.23;;
24425;SDS011;12611;44.446;26.000;2022-10-31T01:03:33;16.43;;;8.37;;
24425;SDS011;12611;44.446;26.000;2022-10-31T01:06:02;18.57;;;9.47;;
24425;SDS011;12611;44.446;26.000;2022-10-31T01:08:32;16.60;;;9.17;;
24425;SDS011;12611;44.446;26.000;2022-10-31T01:11:09;16.43;;;8.70;;
24425;SDS011;12611;44.446;26.000;2022-10-31T01:13:39;20.77;;;9.20;;
24425;SDS011;12611;44.446;26.000;2022-10-31T01:16:10;23.13;;;9.93;;
24425;SDS011;12611;44.446;26.000;2022-10-31T01:18:39;20.43;;;9.57;;
24425;SDS011;12611;44.446;26.000;2022-10-31T01:21:09;17.20;;;8.83;;
24425;SDS011;12611;44.446;26.000;2022-10-31T01:23:43;17.43;;;8.80;;
24425;SDS011;12611;44.446;26.000;2022-10-31T01:26:14;17.30;;;9.47;;
24425;SDS011;12611;44.446;26.000;2022-10-31T01:28:46;18.97;;;8.67;;
24425;SDS011;12611;44.446;26.000;2022-10-31T01:31:19;18.80;;;8.97;;
24425;SDS011;12611;44.446;26.000;2022-10-31T01:33:49;17.90;;;9.07;;
24425;SDS011;12611;44.446;26.000;2022-10-31T01:36:18;18.93;;;8.57;;
24425;SDS011;12611;44.446;26.000;2022-10-31T01:38:49;19.13;;;8.27;;
24425;SDS011;12611;44.446;26.000;2022-10-31T01:41:20;18.73;;;9.33;;
24425;SDS011;12611;44.446;26.000;2022-10-31T01:43:51;16.47;;;8.10;;
24425;SDS011;12611;44.446;26.000;2022-10-31T01:46:21;17.83;;;9.00;;
24425;SDS011;12611;44.446;26.000;2022-10-31T01:48:52;20.43;;;8.90;;
24425;SDS011;12611;44.446;26.000;2022-10-31T01:51:24;19.10;;;8.47;;
24425;SDS011;12611;44.446;26.000;2022-10-31T01:53:58;17.50;;;8.20;;
24425;SDS011;12611;44.446;26.000;2022-10-31T01:56:30;19.33;;;8.07;;
24425;SDS011;12611;44.446;26.000;2022-10-31T01:59:01;18.90;;;9.73;;
24425;SDS011;12611;44.446;26.000;2022-10-31T02:01:33;18.03;;;8.93;;
24425;SDS011;12611;44.446;26.000;2022-10-31T02:04:03;18.47;;;8.17;;
24425;SDS011;12611;44.446;26.000;2022-10-31T02:06:33;19.20;;;8.30;;
24425;SDS011;12611;44.446;26.000;2022-10-31T02:09:05;16.97;;;7.80;;
24425;SDS011;12611;44.446;26.000;2022-10-31T02:11:35;19.97;;;8.33;;
24425;SDS011;12611;44.446;26.000;2022-10-31T02:14:04;15.80;;;8.10;;
24425;SDS011;12611;44.446;26.000;2022-10-31T02:16:32;16.53;;;8.77;;
24425;SDS011;12611;44.446;26.000;2022-10-31T02:19:00;19.17;;;8.53;;
24425;SDS011;12611;44.446;26.000;2022-10-31T02:21:31;15.87;;;8.93;;
24425;SDS011;12611;44.446;26.000;2022-10-31T02:24:13;21.17;;;9.50;;
24425;SDS011;12611;44.446;26.000;2022-10-31T02:30:11;15.90;;;8.60;;
24425;SDS011;12611;44.446;26.000;2022-10-31T02:32:48;19.07;;;9.00;;
24425;SDS011;12611;44.446;26.000;2022-10-31T02:35:24;19.27;;;8.20;;
24425;SDS011;12611;44.446;26.000;2022-10-31T02:38:07;14.77;;;8.10;;
24425;SDS011;12611;44.446;26.000;2022-10-31T02:40:45;17.87;;;8.70;;
24425;SDS011;12611;44.446;26.000;2022-10-31T02:43:21;17.57;;;9.00;;
24425;SDS011;12611;44.446;26.000;2022-10-31T02:45:55;15.77;;;8.53;;
24425;SDS011;12611;44.446;26.000;2022-10-31T02:48:30;15.90;;;8.90;;
24425;SDS011;12611;44.446;26.000;2022-10-31T02:51:02;15.57;;;8.23;;
24425;SDS011;12611;44.446;26.000;2022-10-31T02:53:31;16.90;;;8.57;;
24425;SDS011;12611;44.446;26.000;2022-10-31T02:56:01;14.40;;;8.77;;
24425;SDS011;12611;44.446;26.000;2022-10-31T02:58:33;13.80;;;7.83;;
24425;SDS011;12611;44.446;26.000;2022-10-31T03:01:10;18.50;;;8.57;;
24425;SDS011;12611;44.446;26.000;2022-10-31T03:04:07;20.97;;;9.30;;
24425;SDS011;12611;44.446;26.000;2022-10-31T03:06:45;18.23;;;8.20;;
24425;SDS011;12611;44.446;26.000;2022-10-31T03:09:21;16.40;;;8.70;;
24425;SDS011;12611;44.446;26.000;2022-10-31T03:11:53;16.47;;;8.93;;
24425;SDS011;12611;44.446;26.000;2022-10-31T03:14:27;21.67;;;8.97;;
24425;SDS011;12611;44.446;26.000;2022-10-31T03:17:03;19.30;;;9.20;;
24425;SDS011;12611;44.446;26.000;2022-10-31T03:19:38;20.70;;;9.80;;
24425;SDS011;12611;44.446;26.000;2022-10-31T03:22:10;20.00;;;9.83;;
24425;SDS011;12611;44.446;26.000;2022-10-31T03:24:43;17.87;;;9.63;;
24425;SDS011;12611;44.446;26.000;2022-10-31T03:27:14;19.60;;;9.40;;
24425;SDS011;12611;44.446;26.000;2022-10-31T03:29:46;19.23;;;10.10;;
24425;SDS011;12611;44.446;26.000;2022-10-31T03:32:17;19.03;;;9.07;;
24425;SDS011;12611;44.446;26.000;2022-10-31T03:34:51;19.23;;;10.03;;
24425;SDS011;12611;44.446;26.000;2022-10-31T03:37:24;19.47;;;10.00;;
24425;SDS011;12611;44.446;26.000;2022-10-31T03:39:55;21.83;;;10.40;;
24425;SDS011;12611;44.446;26.000;2022-10-31T03:42:27;20.27;;;9.97;;
24425;SDS011;12611;44.446;26.000;2022-10-31T03:44:59;18.17;;;9.90;;
24425;SDS011;12611;44.446;26.000;2022-10-31T03:47:31;17.47;;;10.10;;
24425;SDS011;12611;44.446;26.000;2022-10-31T03:50:02;21.47;;;10.00;;
24425;SDS011;12611;44.446;26.000;2022-10-31T03:52:32;17.03;;;9.97;;
24425;SDS011;12611;44.446;26.000;2022-10-31T03:55:05;24.10;;;9.90;;
24425;SDS011;12611;44.446;26.000;2022-10-31T03:57:37;21.03;;;8.77;;
24425;SDS011;12611;44.446;26.000;2022-10-31T04:00:12;20.93;;;8.73;;
24425;SDS011;12611;44.446;26.000;2022-10-31T04:02:42;16.87;;;8.67;;
24425;SDS011;12611;44.446;26.000;2022-10-31T04:05:14;21.37;;;9.30;;
24425;SDS011;12611;44.446;26.000;2022-10-31T04:07:45;18.70;;;8.70;;
24425;SDS011;12611;44.446;26.000;2022-10-31T04:10:22;21.45;;;10.07;;
24425;SDS011;12611;44.446;26.000;2022-10-31T04:13:00;19.50;;;8.97;;
24425;SDS011;12611;44.446;26.000;2022-10-31T04:15:32;17.70;;;9.40;;
24425;SDS011;12611;44.446;26.000;2022-10-31T04:18:02;15.93;;;8.67;;
24425;SDS011;12611;44.446;26.000;2022-10-31T04:20:34;19.73;;;9.17;;
24425;SDS011;12611;44.446;26.000;2022-10-31T04:23:04;21.80;;;11.23;;
24425;SDS011;12611;44.446;26.000;2022-10-31T04:25:41;22.30;;;9.67;;
24425;SDS011;12611;44.446;26.000;2022-10-31T04:28:09;20.90;;;9.00;;
24425;SDS011;12611;44.446;26.000;2022-10-31T04:30:38;15.80;;;9.20;;
24425;SDS011;12611;44.446;26.000;2022-10-31T04:33:06;18.00;;;9.47;;
24425;SDS011;12611;44.446;26.000;2022-10-31T04:35:36;21.80;;;9.87;;
24425;SDS011;12611;44.446;26.000;2022-10-31T04:38:04;19.97;;;9.77;;
24425;SDS011;12611;44.446;26.000;2022-10-31T04:40:32;19.47;;;9.63;;
24425;SDS011;12611;44.446;26.000;2022-10-31T04:43:00;16.03;;;8.80;;
24425;SDS011;12611;44.446;26.000;2022-10-31T04:45:29;15.67;;;9.27;;
24425;SDS011;12611;44.446;26.000;2022-10-31T04:47:57;20.03;;;9.40;;
24425;SDS011;12611;44.446;26.000;2022-10-31T04:50:26;20.70;;;8.93;;
24425;SDS011;12611;44.446;26.000;2022-10-31T04:52:56;20.27;;;10.53;;
24425;SDS011;12611;44.446;26.000;2022-10-31T04:55:24;15.63;;;9.93;;
24425;SDS011;12611;44.446;26.000;2022-10-31T04:57:52;20.57;;;9.90;;
24425;SDS011;12611;44.446;26.000;2022-10-31T05:00:22;21.23;;;9.43;;
24425;SDS011;12611;44.446;26.000;2022-10-31T05:02:51;25.60;;;10.60;;
24425;SDS011;12611;44.446;26.000;2022-10-31T05:05:22;21.40;;;9.97;;
24425;SDS011;12611;44.446;26.000;2022-10-31T05:07:51;19.03;;;9.63;;
24425;SDS011;12611;44.446;26.000;2022-10-31T05:10:21;19.53;;;9.57;;
24425;SDS011;12611;44.446;26.000;2022-10-31T05:12:52;22.90;;;9.60;;
24425;SDS011;12611;44.446;26.000;2022-10-31T05:15:21;15.97;;;9.03;;
24425;SDS011;12611;44.446;26.000;2022-10-31T05:17:51;19.83;;;9.40;;
24425;SDS011;12611;44.446;26.000;2022-10-31T05:20:21;23.27;;;9.77;;
24425;SDS011;12611;44.446;26.000;2022-10-31T05:22:50;17.57;;;9.87;;
24425;SDS011;12611;44.446;26.000;2022-10-31T05:25:23;25.07;;;9.33;;
24425;SDS011;12611;44.446;26.000;2022-10-31T05:27:53;22.30;;;9.47;;
24425;SDS011;12611;44.446;26.000;2022-10-31T05:30:24;21.80;;;10.13;;
24425;SDS011;12611;44.446;26.000;2022-10-31T05:32:53;22.97;;;9.33;;
24425;SDS011;12611;44.446;26.000;2022-10-31T05:35:23;19.27;;;8.90;;
24425;SDS011;12611;44.446;26.000;2022-10-31T05:37:53;19.60;;;9.43;;
24425;SDS011;12611;44.446;26.000;2022-10-31T05:40:23;19.63;;;9.97;;
24425;SDS011;12611;44.446;26.000;2022-10-31T05:42:52;24.60;;;10.67;;
24425;SDS011;12611;44.446;26.000;2022-10-31T05:45:22;22.73;;;10.70;;
24425;SDS011;12611;44.446;26.000;2022-10-31T05:47:52;21.40;;;10.30;;
24425;SDS011;12611;44.446;26.000;2022-10-31T05:50:20;21.47;;;9.63;;
24425;SDS011;12611;44.446;26.000;2022-10-31T05:52:53;22.93;;;10.57;;
24425;SDS011;12611;44.446;26.000;2022-10-31T05:55:24;18.20;;;9.70;;
24425;SDS011;12611;44.446;26.000;2022-10-31T05:57:53;27.80;;;11.30;;
24425;SDS011;12611;44.446;26.000;2022-10-31T06:00:22;17.73;;;10.10;;
24425;SDS011;12611;44.446;26.000;2022-10-31T06:02:57;24.43;;;11.67;;
24425;SDS011;12611;44.446;26.000;2022-10-31T06:05:26;25.57;;;11.53;;
24425;SDS011;12611;44.446;26.000;2022-10-31T06:07:54;29.97;;;13.13;;
24425;SDS011;12611;44.446;26.000;2022-10-31T06:10:25;32.83;;;12.47;;
24425;SDS011;12611;44.446;26.000;2022-10-31T06:12:54;30.97;;;12.73;;
24425;SDS011;12611;44.446;26.000;2022-10-31T06:15:23;30.75;;;13.85;;
24425;SDS011;12611;44.446;26.000;2022-10-31T06:17:57;28.33;;;14.03;;
24425;SDS011;12611;44.446;26.000;2022-10-31T06:20:27;25.90;;;12.47;;
24425;SDS011;12611;44.446;26.000;2022-10-31T06:22:56;26.23;;;12.37;;
24425;SDS011;12611;44.446;26.000;2022-10-31T06:25:26;31.23;;;11.27;;
24425;SDS011;12611;44.446;26.000;2022-10-31T06:27:55;28.30;;;9.73;;
24425;SDS011;12611;44.446;26.000;2022-10-31T06:30:23;26.13;;;10.20;;
24425;SDS011;12611;44.446;26.000;2022-10-31T06:32:52;27.00;;;12.07;;
24425;SDS011;12611;44.446;26.000;2022-10-31T06:35:20;31.57;;;10.60;;
24425;SDS011;12611;44.446;26.000;2022-10-31T06:37:51;27.83;;;11.20;;
24425;SDS011;12611;44.446;26.000;2022-10-31T06:40:20;22.90;;;10.63;;
24425;SDS011;12611;44.446;26.000;2022-10-31T06:42:56;23.80;;;10.33;;
24425;SDS011;12611;44.446;26.000;2022-10-31T06:45:25;19.23;;;11.20;;
24425;SDS011;12611;44.446;26.000;2022-10-31T06:47:54;27.07;;;10.17;;
24425;SDS011;12611;44.446;26.000;2022-10-31T06:50:43;23.23;;;10.87;;
24425;SDS011;12611;44.446;26.000;2022-10-31T06:53:12;22.60;;;10.63;;
24425;SDS011;12611;44.446;26.000;2022-10-31T06:55:40;23.73;;;10.63;;
24425;SDS011;12611;44.446;26.000;2022-10-31T06:58:11;24.20;;;10.90;;
24425;SDS011;12611;44.446;26.000;2022-10-31T07:00:39;26.60;;;10.30;;
24425;SDS011;12611;44.446;26.000;2022-10-31T07:03:09;20.13;;;10.43;;
24425;SDS011;12611;44.446;26.000;2022-10-31T07:05:39;21.37;;;10.33;;
24425;SDS011;12611;44.446;26.000;2022-10-31T07:08:08;21.83;;;9.17;;
24425;SDS011;12611;44.446;26.000;2022-10-31T07:10:38;27.60;;;10.93;;
24425;SDS011;12611;44.446;26.000;2022-10-31T07:13:09;21.03;;;10.23;;
24425;SDS011;12611;44.446;26.000;2022-10-31T07:15:41;22.60;;;10.40;;
24425;SDS011;12611;44.446;26.000;2022-10-31T07:18:11;23.40;;;9.70;;
24425;SDS011;12611;44.446;26.000;2022-10-31T07:20:40;21.17;;;10.37;;
24425;SDS011;12611;44.446;26.000;2022-10-31T07:23:08;29.43;;;11.07;;
24425;SDS011;12611;44.446;26.000;2022-10-31T07:25:38;26.00;;;10.57;;
24425;SDS011;12611;44.446;26.000;2022-10-31T07:28:07;18.30;;;10.43;;
24425;SDS011;12611;44.446;26.000;2022-10-31T07:30:37;23.23;;;8.00;;
24425;SDS011;12611;44.446;26.000;2022-10-31T07:33:06;21.93;;;9.07;;
24425;SDS011;12611;44.446;26.000;2022-10-31T07:35:35;22.83;;;7.83;;
24425;SDS011;12611;44.446;26.000;2022-10-31T07:38:07;15.37;;;7.50;;
24425;SDS011;12611;44.446;26.000;2022-10-31T07:40:37;20.17;;;10.43;;
24425;SDS011;12611;44.446;26.000;2022-10-31T07:43:05;19.93;;;7.93;;
24425;SDS011;12611;44.446;26.000;2022-10-31T07:45:40;19.83;;;8.40;;
24425;SDS011;12611;44.446;26.000;2022-10-31T07:48:08;24.00;;;8.03;;
24425;SDS011;12611;44.446;26.000;2022-10-31T07:50:37;13.23;;;6.63;;
24425;SDS011;12611;44.446;26.000;2022-10-31T07:53:07;20.63;;;6.70;;
24425;SDS011;12611;44.446;26.000;2022-10-31T07:55:37;15.13;;;6.80;;
24425;SDS011;12611;44.446;26.000;2022-10-31T07:58:06;12.23;;;7.10;;
24425;SDS011;12611;44.446;26.000;2022-10-31T08:00:36;18.40;;;7.03;;
24425;SDS011;12611;44.446;26.000;2022-10-31T08:03:07;14.77;;;6.23;;
24425;SDS011;12611;44.446;26.000;2022-10-31T08:05:37;13.73;;;5.63;;
24425;SDS011;12611;44.446;26.000;2022-10-31T08:08:07;14.13;;;5.97;;
24425;SDS011;12611;44.446;26.000;2022-10-31T08:10:36;13.37;;;4.87;;
24425;SDS011;12611;44.446;26.000;2022-10-31T08:13:06;10.37;;;5.13;;
24425;SDS011;12611;44.446;26.000;2022-10-31T08:15:35;12.63;;;6.77;;
24425;SDS011;12611;44.446;26.000;2022-10-31T08:18:13;14.50;;;6.33;;
24425;SDS011;12611;44.446;26.000;2022-10-31T08:20:42;13.60;;;5.73;;
24425;SDS011;12611;44.446;26.000;2022-10-31T08:23:11;17.23;;;5.50;;
24425;SDS011;12611;44.446;26.000;2022-10-31T08:25:40;16.65;;;5.32;;
24425;SDS011;12611;44.446;26.000;2022-10-31T08:28:10;15.37;;;5.37;;
24425;SDS011;12611;44.446;26.000;2022-10-31T08:30:39;10.85;;;5.07;;
24425;SDS011;12611;44.446;26.000;2022-10-31T08:33:09;13.23;;;5.20;;
24425;SDS011;12611;44.446;26.000;2022-10-31T08:35:39;14.43;;;5.60;;
24425;SDS011;12611;44.446;26.000;2022-10-31T08:38:12;13.57;;;4.53;;
24425;SDS011;12611;44.446;26.000;2022-10-31T08:40:40;11.17;;;5.27;;
24425;SDS011;12611;44.446;26.000;2022-10-31T08:43:10;10.85;;;4.82;;
24425;SDS011;12611;44.446;26.000;2022-10-31T08:45:40;12.02;;;4.22;;
24425;SDS011;12611;44.446;26.000;2022-10-31T08:48:10;13.18;;;5.07;;
24425;SDS011;12611;44.446;26.000;2022-10-31T08:50:41;13.05;;;5.13;;
24425;SDS011;12611;44.446;26.000;2022-10-31T08:53:11;11.10;;;5.18;;
24425;SDS011;12611;44.446;26.000;2022-10-31T08:55:40;10.63;;;4.93;;
24425;SDS011;12611;44.446;26.000;2022-10-31T08:58:10;9.15;;;4.82;;
24425;SDS011;12611;44.446;26.000;2022-10-31T09:00:40;13.65;;;4.70;;
24425;SDS011;12611;44.446;26.000;2022-10-31T09:03:09;10.18;;;4.95;;
24425;SDS011;12611;44.446;26.000;2022-10-31T09:05:40;13.07;;;4.90;;
24425;SDS011;12611;44.446;26.000;2022-10-31T09:08:09;11.60;;;4.20;;
24425;SDS011;12611;44.446;26.000;2022-10-31T09:10:42;13.35;;;5.68;;
24425;SDS011;12611;44.446;26.000;2022-10-31T09:13:19;9.45;;;5.40;;
24425;SDS011;12611;44.446;26.000;2022-10-31T09:15:53;12.13;;;5.10;;
24425;SDS011;12611;44.446;26.000;2022-10-31T09:18:22;10.02;;;5.10;;
24425;SDS011;12611;44.446;26.000;2022-10-31T09:20:52;14.50;;;5.57;;
24425;SDS011;12611;44.446;26.000;2022-10-31T09:23:21;13.20;;;5.25;;
24425;SDS011;12611;44.446;26.000;2022-10-31T09:25:51;13.23;;;5.82;;
24425;SDS011;12611;44.446;26.000;2022-10-31T09:28:21;12.57;;;5.55;;
24425;SDS011;12611;44.446;26.000;2022-10-31T09:30:51;12.88;;;5.68;;
24425;SDS011;12611;44.446;26.000;2022-10-31T09:33:20;15.88;;;6.00;;
24425;SDS011;12611;44.446;26.000;2022-10-31T09:35:49;13.93;;;5.55;;
24425;SDS011;12611;44.446;26.000;2022-10-31T09:38:25;19.85;;;6.20;;
24425;SDS011;12611;44.446;26.000;2022-10-31T09:40:55;10.52;;;5.90;;
24425;SDS011;12611;44.446;26.000;2022-10-31T09:43:31;14.27;;;5.70;;
24425;SDS011;12611;44.446;26.000;2022-10-31T09:46:06;15.43;;;6.10;;
24425;SDS011;12611;44.446;26.000;2022-10-31T09:48:45;21.33;;;7.00;;
24425;SDS011;12611;44.446;26.000;2022-10-31T09:51:24;17.42;;;6.68;;
24425;SDS011;12611;44.446;26.000;2022-10-31T09:53:58;19.10;;;7.15;;
24425;SDS011;12611;44.446;26.000;2022-10-31T09:56:30;12.63;;;6.07;;
24425;SDS011;12611;44.446;26.000;2022-10-31T09:59:01;15.77;;;6.05;;
24425;SDS011;12611;44.446;26.000;2022-10-31T10:01:34;19.42;;;6.05;;
24425;SDS011;12611;44.446;26.000;2022-10-31T10:04:11;12.77;;;5.95;;
24425;SDS011;12611;44.446;26.000;2022-10-31T10:06:57;13.15;;;5.50;;
24425;SDS011;12611;44.446;26.000;2022-10-31T10:09:26;15.95;;;5.75;;
24425;SDS011;12611;44.446;26.000;2022-10-31T10:11:58;11.98;;;5.20;;
24425;SDS011;12611;44.446;26.000;2022-10-31T10:14:34;11.95;;;5.10;;
24425;SDS011;12611;44.446;26.000;2022-10-31T10:17:15;13.90;;;5.13;;
24425;SDS011;12611;44.446;26.000;2022-10-31T10:20:00;15.75;;;6.43;;
24425;SDS011;12611;44.446;26.000;2022-10-31T10:22:42;16.02;;;5.45;;
24425;SDS011;12611;44.446;26.000;2022-10-31T10:25:15;10.35;;;4.95;;
24425;SDS011;12611;44.446;26.000;2022-10-31T10:27:49;11.60;;;5.47;;
24425;SDS011;12611;44.446;26.000;2022-10-31T10:30:33;11.00;;;4.95;;
24425;SDS011;12611;44.446;26.000;2022-10-31T10:33:09;11.77;;;5.57;;
24425;SDS011;12611;44.446;26.000;2022-10-31T10:35:41;12.15;;;5.38;;
24425;SDS011;12611;44.446;26.000;2022-10-31T10:38:16;10.75;;;4.97;;
24425;SDS011;12611;44.446;26.000;2022-10-31T10:40:50;9.95;;;4.68;;
24425;SDS011;12611;44.446;26.000;2022-10-31T10:43:22;14.55;;;4.90;;
24425;SDS011;12611;44.446;26.000;2022-10-31T10:45:57;8.68;;;4.53;;
24425;SDS011;12611;44.446;26.000;2022-10-31T10:49:01;12.52;;;4.85;;
24425;SDS011;12611;44.446;26.000;2022-10-31T10:51:38;10.90;;;4.72;;
24425;SDS011;12611;44.446;26.000;2022-10-31T10:54:38;10.68;;;4.60;;
24425;SDS011;12611;44.446;26.000;2022-10-31T10:57:21;11.32;;;4.47;;
24425;SDS011;12611;44.446;26.000;2022-10-31T11:00:17;9.20;;;4.88;;
24425;SDS011;12611;44.446;26.000;2022-10-31T11:02:47;8.05;;;4.60;;
24425;SDS011;12611;44.446;26.000;2022-10-31T11:05:19;16.13;;;5.18;;
24425;SDS011;12611;44.446;26.000;2022-10-31T11:07:51;9.85;;;4.78;;
24425;SDS011;12611;44.446;26.000;2022-10-31T11:10:21;10.80;;;5.30;;
24425;SDS011;12611;44.446;26.000;2022-10-31T11:13:01;11.18;;;5.80;;
24425;SDS011;12611;44.446;26.000;2022-10-31T11:15:49;10.30;;;4.85;;
24425;SDS011;12611;44.446;26.000;2022-10-31T11:18:20;14.63;;;5.43;;
24425;SDS011;12611;44.446;26.000;2022-10-31T11:20:56;11.68;;;4.43;;
24425;SDS011;12611;44.446;26.000;2022-10-31T11:23:26;10.85;;;5.35;;
24425;SDS011;12611;44.446;26.000;2022-10-31T11:25:57;8.10;;;4.93;;
24425;SDS011;12611;44.446;26.000;2022-10-31T11:28:28;7.70;;;4.57;;
24425;SDS011;12611;44.446;26.000;2022-10-31T11:30:59;12.77;;;5.00;;
24425;SDS011;12611;44.446;26.000;2022-10-31T11:33:29;10.18;;;4.97;;
24425;SDS011;12611;44.446;26.000;2022-10-31T11:36:00;11.85;;;5.40;;
24425;SDS011;12611;44.446;26.000;2022-10-31T11:38:32;10.48;;;5.07;;
24425;SDS011;12611;44.446;26.000;2022-10-31T11:41:12;7.90;;;4.60;;
24425;SDS011;12611;44.446;26.000;2022-10-31T11:43:45;13.05;;;5.03;;
24425;SDS011;12611;44.446;26.000;2022-10-31T11:46:18;9.23;;;4.95;;
24425;SDS011;12611;44.446;26.000;2022-10-31T11:48:50;9.88;;;5.10;;
24425;SDS011;12611;44.446;26.000;2022-10-31T11:51:21;11.88;;;4.82;;
24425;SDS011;12611;44.446;26.000;2022-10-31T11:53:52;9.90;;;4.90;;
24425;SDS011;12611;44.446;26.000;2022-10-31T11:56:37;9.65;;;4.70;;
24425;SDS011;12611;44.446;26.000;2022-10-31T11:59:15;11.80;;;4.43;;
24425;SDS011;12611;44.446;26.000;2022-10-31T12:01:48;9.45;;;4.13;;
24425;SDS011;12611;44.446;26.000;2022-10-31T12:04:18;7.35;;;4.03;;
24425;SDS011;12611;44.446;26.000;2022-10-31T12:06:54;9.32;;;5.05;;
24425;SDS011;12611;44.446;26.000;2022-10-31T12:09:23;9.35;;;4.47;;
24425;SDS011;12611;44.446;26.000;2022-10-31T12:12:00;9.60;;;4.40;;
24425;SDS011;12611;44.446;26.000;2022-10-31T12:14:44;12.85;;;4.72;;
24425;SDS011;12611;44.446;26.000;2022-10-31T12:17:23;10.60;;;4.80;;
24425;SDS011;12611;44.446;26.000;2022-10-31T12:20:00;10.18;;;4.70;;
24425;SDS011;12611;44.446;26.000;2022-10-31T12:22:38;10.88;;;5.00;;
24425;SDS011;12611;44.446;26.000;2022-10-31T12:25:21;6.75;;;4.15;;
24425;SDS011;12611;44.446;26.000;2022-10-31T12:28:09;10.57;;;4.80;;
24425;SDS011;12611;44.446;26.000;2022-10-31T12:30:58;11.63;;;4.40;;
24425;SDS011;12611;44.446;26.000;2022-10-31T12:33:36;9.93;;;4.95;;
24425;SDS011;12611;44.446;26.000;2022-10-31T12:36:24;9.48;;;5.22;;
24425;SDS011;12611;44.446;26.000;2022-10-31T12:39:12;11.50;;;5.40;;
24425;SDS011;12611;44.446;26.000;2022-10-31T12:41:52;8.45;;;4.15;;
24425;SDS011;12611;44.446;26.000;2022-10-31T12:44:34;10.43;;;4.75;;
24425;SDS011;12611;44.446;26.000;2022-10-31T12:47:30;10.60;;;4.57;;
24425;SDS011;12611;44.446;26.000;2022-10-31T12:50:19;9.15;;;4.93;;
24425;SDS011;12611;44.446;26.000;2022-10-31T12:52:59;7.78;;;4.25;;
24425;SDS011;12611;44.446;26.000;2022-10-31T12:55:47;13.45;;;4.88;;
24425;SDS011;12611;44.446;26.000;2022-10-31T12:58:24;9.10;;;5.10;;
24425;SDS011;12611;44.446;26.000;2022-10-31T13:01:02;11.98;;;5.07;;
24425;SDS011;12611;44.446;26.000;2022-10-31T13:03:42;14.85;;;4.95;;
24425;SDS011;12611;44.446;26.000;2022-10-31T13:06:16;10.57;;;5.20;;
24425;SDS011;12611;44.446;26.000;2022-10-31T13:08:47;14.05;;;4.70;;
24425;SDS011;12611;44.446;26.000;2022-10-31T13:11:20;11.93;;;5.00;;
24425;SDS011;12611;44.446;26.000;2022-10-31T13:13:58;10.48;;;5.88;;
24425;SDS011;12611;44.446;26.000;2022-10-31T13:16:49;8.77;;;4.70;;
24425;SDS011;12611;44.446;26.000;2022-10-31T13:19:19;11.98;;;5.60;;
24425;SDS011;12611;44.446;26.000;2022-10-31T13:21:54;18.20;;;5.68;;
24425;SDS011;12611;44.446;26.000;2022-10-31T13:24:32;12.23;;;4.97;;
24425;SDS011;12611;44.446;26.000;2022-10-31T13:27:09;12.80;;;6.00;;
24425;SDS011;12611;44.446;26.000;2022-10-31T13:29:42;9.63;;;5.15;;
24425;SDS011;12611;44.446;26.000;2022-10-31T13:32:18;10.20;;;5.53;;
24425;SDS011;12611;44.446;26.000;2022-10-31T13:34:47;11.05;;;6.07;;
24425;SDS011;12611;44.446;26.000;2022-10-31T13:37:22;12.63;;;6.13;;
24425;SDS011;12611;44.446;26.000;2022-10-31T13:40:02;16.50;;;5.10;;
24425;SDS011;12611;44.446;26.000;2022-10-31T13:42:40;8.75;;;4.68;;
24425;SDS011;12611;44.446;26.000;2022-10-31T13:45:17;9.60;;;4.63;;
24425;SDS011;12611;44.446;26.000;2022-10-31T13:47:56;10.70;;;4.60;;
24425;SDS011;12611;44.446;26.000;2022-10-31T13:50:27;11.35;;;4.53;;
24425;SDS011;12611;44.446;26.000;2022-10-31T13:53:13;11.98;;;5.15;;
24425;SDS011;12611;44.446;26.000;2022-10-31T13:55:47;11.38;;;4.75;;
24425;SDS011;12611;44.446;26.000;2022-10-31T13:58:21;15.68;;;5.60;;
24425;SDS011;12611;44.446;26.000;2022-10-31T14:00:58;11.02;;;4.57;;
24425;SDS011;12611;44.446;26.000;2022-10-31T14:03:35;10.68;;;5.40;;
24425;SDS011;12611;44.446;26.000;2022-10-31T14:06:34;9.45;;;4.45;;
24425;SDS011;12611;44.446;26.000;2022-10-31T14:09:16;9.32;;;4.43;;
24425;SDS011;12611;44.446;26.000;2022-10-31T14:11:54;9.20;;;5.55;;
24425;SDS011;12611;44.446;26.000;2022-10-31T14:14:26;10.40;;;4.55;;
24425;SDS011;12611;44.446;26.000;2022-10-31T14:17:14;14.52;;;4.43;;
24425;SDS011;12611;44.446;26.000;2022-10-31T14:20:01;14.02;;;5.28;;
24425;SDS011;12611;44.446;26.000;2022-10-31T14:22:49;11.57;;;4.65;;
24425;SDS011;12611;44.446;26.000;2022-10-31T14:25:28;17.58;;;5.20;;
24425;SDS011;12611;44.446;26.000;2022-10-31T14:27:59;13.98;;;5.15;;
24425;SDS011;12611;44.446;26.000;2022-10-31T14:30:30;10.23;;;4.60;;
24425;SDS011;12611;44.446;26.000;2022-10-31T14:33:00;12.68;;;4.90;;
24425;SDS011;12611;44.446;26.000;2022-10-31T14:35:36;10.48;;;4.25;;
24425;SDS011;12611;44.446;26.000;2022-10-31T14:38:21;10.35;;;4.60;;
24425;SDS011;12611;44.446;26.000;2022-10-31T14:41:23;10.60;;;4.55;;
24425;SDS011;12611;44.446;26.000;2022-10-31T14:44:17;15.38;;;4.60;;
24425;SDS011;12611;44.446;26.000;2022-10-31T14:47:07;13.00;;;4.25;;
24425;SDS011;12611;44.446;26.000;2022-10-31T14:49:50;18.10;;;4.85;;
24425;SDS011;12611;44.446;26.000;2022-10-31T14:52:36;15.57;;;4.97;;
24425;SDS011;12611;44.446;26.000;2022-10-31T14:55:06;8.95;;;5.00;;
24425;SDS011;12611;44.446;26.000;2022-10-31T14:57:42;11.65;;;4.80;;
24425;SDS011;12611;44.446;26.000;2022-10-31T15:00:16;13.10;;;4.63;;